Belle River, Canada
Current Conditions -  °F | °C
As of 11:00 PM on Saturday 22 Nov 2014 (Local Time) from CYQG Reporting Station
Overcast Overcast  
Wind Chill:   Ceiling: 3400
Heat Index:   Visibility: 7mi
Dew Point:   Wind: 13mph
Humidity: 87%   Direction: 210°SSW
Pressure: 29.95"   Gusts: NA
Location:  42.3°N, 82.72°W
Report Text: CYQG 230400Z 21011KT 7SM OVC034 07/05 A2995 RMK SC8 SLP146
Loading
Personal Weather Stations






























Interactive Weather Map New forecast layout! Learn more

10-Day Weather Forecast

Advertisements
Track Severe Weather on mobile